sensor_id;sensor_type;location;lat;lon;timestamp;P1;durP1;ratioP1;P2;durP2;ratioP2
58101;SDS011;52034;51.926;6.320;2022-10-04T00:01:08;12.02;;;7.82;;
58101;SDS011;52034;51.926;6.320;2022-10-04T00:02:30;9.98;;;7.40;;
58101;SDS011;52034;51.926;6.320;2022-10-04T00:03:53;10.52;;;7.45;;
58101;SDS011;52034;51.926;6.320;2022-10-04T00:05:23;10.32;;;7.35;;
58101;SDS011;52034;51.926;6.320;2022-10-04T00:06:44;12.05;;;7.80;;
58101;SDS011;52034;51.926;6.320;2022-10-04T00:09:49;12.25;;;9.32;;
58101;SDS011;52034;51.926;6.320;2022-10-04T00:11:19;11.35;;;8.20;;
58101;SDS011;52034;51.926;6.320;2022-10-04T00:12:49;17.23;;;8.63;;
58101;SDS011;52034;51.926;6.320;2022-10-04T00:14:21;13.90;;;8.52;;
58101;SDS011;52034;51.926;6.320;2022-10-04T00:15:45;10.70;;;8.45;;
58101;SDS011;52034;51.926;6.320;2022-10-04T00:17:08;11.07;;;8.00;;
58101;SDS011;52034;51.926;6.320;2022-10-04T00:18:30;12.50;;;7.55;;
58101;SDS011;52034;51.926;6.320;2022-10-04T00:19:56;12.07;;;7.88;;
58101;SDS011;52034;51.926;6.320;2022-10-04T00:21:15;15.32;;;8.52;;
58101;SDS011;52034;51.926;6.320;2022-10-04T00:22:34;12.68;;;7.85;;
58101;SDS011;52034;51.926;6.320;2022-10-04T00:23:53;12.40;;;7.50;;
58101;SDS011;52034;51.926;6.320;2022-10-04T00:25:34;9.65;;;7.78;;
58101;SDS011;52034;51.926;6.320;2022-10-04T00:28:44;11.95;;;7.68;;
58101;SDS011;52034;51.926;6.320;2022-10-04T00:31:24;12.13;;;8.30;;
58101;SDS011;52034;51.926;6.320;2022-10-04T00:32:44;13.27;;;7.75;;
58101;SDS011;52034;51.926;6.320;2022-10-04T00:36:47;12.73;;;7.93;;
58101;SDS011;52034;51.926;6.320;2022-10-04T00:38:12;12.18;;;8.70;;
58101;SDS011;52034;51.926;6.320;2022-10-04T00:41:02;13.00;;;8.35;;
58101;SDS011;52034;51.926;6.320;2022-10-04T00:42:27;11.65;;;8.18;;
58101;SDS011;52034;51.926;6.320;2022-10-04T00:43:51;11.90;;;8.40;;
58101;SDS011;52034;51.926;6.320;2022-10-04T00:46:30;11.68;;;8.57;;
58101;SDS011;52034;51.926;6.320;2022-10-04T00:49:21;13.55;;;8.98;;
58101;SDS011;52034;51.926;6.320;2022-10-04T00:50:44;10.45;;;8.70;;
58101;SDS011;52034;51.926;6.320;2022-10-04T00:52:11;12.63;;;8.45;;
58101;SDS011;52034;51.926;6.320;2022-10-04T00:53:50;12.93;;;8.60;;
58101;SDS011;52034;51.926;6.320;2022-10-04T00:55:21;11.27;;;8.77;;
58101;SDS011;52034;51.926;6.320;2022-10-04T00:56:49;17.77;;;9.15;;
58101;SDS011;52034;51.926;6.320;2022-10-04T00:58:13;11.90;;;8.25;;
58101;SDS011;52034;51.926;6.320;2022-10-04T00:59:43;12.13;;;8.98;;
58101;SDS011;52034;51.926;6.320;2022-10-04T01:01:04;13.00;;;8.15;;
58101;SDS011;52034;51.926;6.320;2022-10-04T01:04:23;17.40;;;9.00;;
58101;SDS011;52034;51.926;6.320;2022-10-04T01:05:52;15.15;;;9.45;;
58101;SDS011;52034;51.926;6.320;2022-10-04T01:07:14;15.32;;;9.60;;
58101;SDS011;52034;51.926;6.320;2022-10-04T01:08:53;14.18;;;9.23;;
58101;SDS011;52034;51.926;6.320;2022-10-04T01:11:44;20.45;;;9.63;;
58101;SDS011;52034;51.926;6.320;2022-10-04T01:13:18;18.23;;;10.15;;
58101;SDS011;52034;51.926;6.320;2022-10-04T01:14:52;12.00;;;8.80;;
58101;SDS011;52034;51.926;6.320;2022-10-04T01:16:18;14.80;;;9.15;;
58101;SDS011;52034;51.926;6.320;2022-10-04T01:17:39;15.20;;;9.50;;
58101;SDS011;52034;51.926;6.320;2022-10-04T01:19:47;11.82;;;8.68;;
58101;SDS011;52034;51.926;6.320;2022-10-04T01:25:00;11.40;;;8.55;;
58101;SDS011;52034;51.926;6.320;2022-10-04T01:27:48;15.65;;;9.05;;
58101;SDS011;52034;51.926;6.320;2022-10-04T01:30:27;14.93;;;10.10;;
58101;SDS011;52034;51.926;6.320;2022-10-04T01:31:47;16.08;;;9.48;;
58101;SDS011;52034;51.926;6.320;2022-10-04T01:33:08;17.40;;;11.00;;
58101;SDS011;52034;51.926;6.320;2022-10-04T01:34:28;15.10;;;10.00;;
58101;SDS011;52034;51.926;6.320;2022-10-04T01:35:47;24.30;;;9.80;;
58101;SDS011;52034;51.926;6.320;2022-10-04T01:37:07;14.27;;;9.73;;
58101;SDS011;52034;51.926;6.320;2022-10-04T01:38:26;17.33;;;9.55;;
58101;SDS011;52034;51.926;6.320;2022-10-04T01:39:44;15.90;;;9.98;;
58101;SDS011;52034;51.926;6.320;2022-10-04T01:41:04;17.20;;;10.02;;
58101;SDS011;52034;51.926;6.320;2022-10-04T01:43:50;16.17;;;9.10;;
58101;SDS011;52034;51.926;6.320;2022-10-04T01:45:13;17.27;;;10.37;;
58101;SDS011;52034;51.926;6.320;2022-10-04T01:46:36;12.07;;;8.70;;
58101;SDS011;52034;51.926;6.320;2022-10-04T01:48:00;16.88;;;8.88;;
58101;SDS011;52034;51.926;6.320;2022-10-04T01:49:24;12.00;;;8.63;;
58101;SDS011;52034;51.926;6.320;2022-10-04T01:50:55;12.88;;;9.00;;
58101;SDS011;52034;51.926;6.320;2022-10-04T01:52:20;13.65;;;8.45;;
58101;SDS011;52034;51.926;6.320;2022-10-04T01:53:59;11.98;;;8.38;;
58101;SDS011;52034;51.926;6.320;2022-10-04T01:55:25;11.32;;;8.40;;
58101;SDS011;52034;51.926;6.320;2022-10-04T01:56:48;14.75;;;9.30;;
58101;SDS011;52034;51.926;6.320;2022-10-04T01:58:19;17.98;;;9.68;;
58101;SDS011;52034;51.926;6.320;2022-10-04T01:59:49;12.38;;;8.60;;
58101;SDS011;52034;51.926;6.320;2022-10-04T02:01:59;15.60;;;8.38;;
58101;SDS011;52034;51.926;6.320;2022-10-04T02:03:03;12.20;;;8.20;;
58101;SDS011;52034;51.926;6.320;2022-10-04T02:04:32;12.95;;;8.77;;
58101;SDS011;52034;51.926;6.320;2022-10-04T02:05:57;16.45;;;8.93;;
58101;SDS011;52034;51.926;6.320;2022-10-04T02:07:18;14.95;;;8.75;;
58101;SDS011;52034;51.926;6.320;2022-10-04T02:08:38;12.18;;;8.20;;
58101;SDS011;52034;51.926;6.320;2022-10-04T02:10:03;15.30;;;8.82;;
58101;SDS011;52034;51.926;6.320;2022-10-04T02:11:26;12.30;;;8.05;;
58101;SDS011;52034;51.926;6.320;2022-10-04T02:12:48;16.02;;;9.27;;
58101;SDS011;52034;51.926;6.320;2022-10-04T02:14:13;13.35;;;9.10;;
58101;SDS011;52034;51.926;6.320;2022-10-04T02:15:34;11.82;;;9.13;;
58101;SDS011;52034;51.926;6.320;2022-10-04T02:16:53;16.60;;;9.65;;
58101;SDS011;52034;51.926;6.320;2022-10-04T02:18:13;14.25;;;9.15;;
58101;SDS011;52034;51.926;6.320;2022-10-04T02:19:35;19.10;;;10.55;;
58101;SDS011;52034;51.926;6.320;2022-10-04T02:20:56;18.42;;;11.05;;
58101;SDS011;52034;51.926;6.320;2022-10-04T02:22:16;19.10;;;10.43;;
58101;SDS011;52034;51.926;6.320;2022-10-04T02:23:36;16.35;;;10.55;;
58101;SDS011;52034;51.926;6.320;2022-10-04T02:24:55;15.27;;;10.00;;
58101;SDS011;52034;51.926;6.320;2022-10-04T02:26:15;14.45;;;10.68;;
58101;SDS011;52034;51.926;6.320;2022-10-04T02:27:34;14.52;;;10.23;;
58101;SDS011;52034;51.926;6.320;2022-10-04T02:28:54;18.33;;;10.82;;
58101;SDS011;52034;51.926;6.320;2022-10-04T02:30:13;16.80;;;10.82;;
58101;SDS011;52034;51.926;6.320;2022-10-04T02:31:32;14.98;;;10.10;;
58101;SDS011;52034;51.926;6.320;2022-10-04T02:33:10;14.25;;;10.30;;
58101;SDS011;52034;51.926;6.320;2022-10-04T02:34:29;15.65;;;9.98;;
58101;SDS011;52034;51.926;6.320;2022-10-04T02:35:49;15.68;;;10.32;;
58101;SDS011;52034;51.926;6.320;2022-10-04T02:37:08;15.05;;;10.48;;
58101;SDS011;52034;51.926;6.320;2022-10-04T02:38:28;15.55;;;10.15;;
58101;SDS011;52034;51.926;6.320;2022-10-04T02:39:53;16.33;;;10.23;;
58101;SDS011;52034;51.926;6.320;2022-10-04T02:41:19;16.77;;;9.98;;
58101;SDS011;52034;51.926;6.320;2022-10-04T02:42:47;17.25;;;10.95;;
58101;SDS011;52034;51.926;6.320;2022-10-04T02:44:09;17.95;;;10.35;;
58101;SDS011;52034;51.926;6.320;2022-10-04T02:45:41;13.85;;;10.48;;
58101;SDS011;52034;51.926;6.320;2022-10-04T02:47:07;21.25;;;10.82;;
58101;SDS011;52034;51.926;6.320;2022-10-04T02:50:33;17.65;;;10.85;;
58101;SDS011;52034;51.926;6.320;2022-10-04T02:52:00;18.23;;;10.85;;
58101;SDS011;52034;51.926;6.320;2022-10-04T02:53:23;16.48;;;10.30;;
58101;SDS011;52034;51.926;6.320;2022-10-04T02:54:54;14.65;;;10.15;;
58101;SDS011;52034;51.926;6.320;2022-10-04T02:56:19;16.15;;;10.93;;
58101;SDS011;52034;51.926;6.320;2022-10-04T02:57:40;17.17;;;11.35;;
58101;SDS011;52034;51.926;6.320;2022-10-04T02:59:03;14.60;;;10.95;;
58101;SDS011;52034;51.926;6.320;2022-10-04T03:00:27;18.15;;;11.35;;
58101;SDS011;52034;51.926;6.320;2022-10-04T03:01:54;20.60;;;11.65;;
58101;SDS011;52034;51.926;6.320;2022-10-04T03:04:43;20.63;;;11.50;;
58101;SDS011;52034;51.926;6.320;2022-10-04T03:06:06;17.45;;;10.80;;
58101;SDS011;52034;51.926;6.320;2022-10-04T03:07:30;19.60;;;11.65;;
58101;SDS011;52034;51.926;6.320;2022-10-04T03:08:52;17.05;;;11.80;;
58101;SDS011;52034;51.926;6.320;2022-10-04T03:10:12;20.10;;;12.20;;
58101;SDS011;52034;51.926;6.320;2022-10-04T03:11:34;17.35;;;10.98;;
58101;SDS011;52034;51.926;6.320;2022-10-04T03:12:55;16.58;;;11.38;;
58101;SDS011;52034;51.926;6.320;2022-10-04T03:14:16;20.58;;;12.20;;
58101;SDS011;52034;51.926;6.320;2022-10-04T03:15:38;21.77;;;11.77;;
58101;SDS011;52034;51.926;6.320;2022-10-04T03:16:58;22.70;;;11.95;;
58101;SDS011;52034;51.926;6.320;2022-10-04T03:18:19;22.63;;;12.03;;
58101;SDS011;52034;51.926;6.320;2022-10-04T03:19:38;18.95;;;11.40;;
58101;SDS011;52034;51.926;6.320;2022-10-04T03:20:59;23.35;;;12.55;;
58101;SDS011;52034;51.926;6.320;2022-10-04T03:22:19;18.10;;;11.55;;
58101;SDS011;52034;51.926;6.320;2022-10-04T03:23:41;17.80;;;11.40;;
58101;SDS011;52034;51.926;6.320;2022-10-04T03:25:00;18.60;;;11.70;;
58101;SDS011;52034;51.926;6.320;2022-10-04T03:26:31;16.58;;;11.07;;
58101;SDS011;52034;51.926;6.320;2022-10-04T03:27:54;18.13;;;11.27;;
58101;SDS011;52034;51.926;6.320;2022-10-04T03:29:17;15.82;;;10.60;;
58101;SDS011;52034;51.926;6.320;2022-10-04T03:30:37;17.35;;;10.50;;
58101;SDS011;52034;51.926;6.320;2022-10-04T03:32:02;18.35;;;10.77;;
58101;SDS011;52034;51.926;6.320;2022-10-04T03:33:22;17.77;;;10.77;;
58101;SDS011;52034;51.926;6.320;2022-10-04T03:34:52;18.25;;;11.15;;
58101;SDS011;52034;51.926;6.320;2022-10-04T03:36:15;17.27;;;10.68;;
58101;SDS011;52034;51.926;6.320;2022-10-04T03:37:36;16.03;;;10.20;;
58101;SDS011;52034;51.926;6.320;2022-10-04T03:38:55;16.00;;;10.10;;
58101;SDS011;52034;51.926;6.320;2022-10-04T03:40:15;19.67;;;11.15;;
58101;SDS011;52034;51.926;6.320;2022-10-04T03:41:37;16.25;;;10.38;;
58101;SDS011;52034;51.926;6.320;2022-10-04T03:42:57;17.52;;;10.90;;
58101;SDS011;52034;51.926;6.320;2022-10-04T03:44:17;16.98;;;10.82;;
58101;SDS011;52034;51.926;6.320;2022-10-04T03:45:37;12.52;;;9.68;;
58101;SDS011;52034;51.926;6.320;2022-10-04T03:46:57;18.95;;;10.52;;
58101;SDS011;52034;51.926;6.320;2022-10-04T03:48:24;14.07;;;9.98;;
58101;SDS011;52034;51.926;6.320;2022-10-04T03:49:46;16.70;;;10.07;;
58101;SDS011;52034;51.926;6.320;2022-10-04T03:51:07;17.15;;;9.77;;
58101;SDS011;52034;51.926;6.320;2022-10-04T03:52:34;17.98;;;10.07;;
58101;SDS011;52034;51.926;6.320;2022-10-04T03:53:56;16.48;;;10.63;;
58101;SDS011;52034;51.926;6.320;2022-10-04T03:55:16;15.35;;;10.98;;
58101;SDS011;52034;51.926;6.320;2022-10-04T03:56:36;14.07;;;10.65;;
58101;SDS011;52034;51.926;6.320;2022-10-04T03:57:55;19.77;;;10.55;;
58101;SDS011;52034;51.926;6.320;2022-10-04T03:59:15;13.02;;;10.02;;
58101;SDS011;52034;51.926;6.320;2022-10-04T04:00:36;19.75;;;10.27;;
58101;SDS011;52034;51.926;6.320;2022-10-04T04:02:06;14.45;;;10.35;;
58101;SDS011;52034;51.926;6.320;2022-10-04T04:03:50;14.02;;;10.35;;
58101;SDS011;52034;51.926;6.320;2022-10-04T04:07:33;16.88;;;10.60;;
58101;SDS011;52034;51.926;6.320;2022-10-04T04:08:56;14.27;;;11.18;;
58101;SDS011;52034;51.926;6.320;2022-10-04T04:10:30;14.05;;;10.43;;
58101;SDS011;52034;51.926;6.320;2022-10-04T04:11:52;15.40;;;10.55;;
58101;SDS011;52034;51.926;6.320;2022-10-04T04:14:56;16.05;;;11.10;;
58101;SDS011;52034;51.926;6.320;2022-10-04T04:16:19;16.73;;;11.23;;
58101;SDS011;52034;51.926;6.320;2022-10-04T04:17:46;18.10;;;10.75;;
58101;SDS011;52034;51.926;6.320;2022-10-04T04:19:10;17.42;;;11.07;;
58101;SDS011;52034;51.926;6.320;2022-10-04T04:20:32;12.40;;;10.65;;
58101;SDS011;52034;51.926;6.320;2022-10-04T04:21:53;16.40;;;10.40;;
58101;SDS011;52034;51.926;6.320;2022-10-04T04:24:31;15.45;;;10.43;;
58101;SDS011;52034;51.926;6.320;2022-10-04T04:25:52;14.98;;;9.90;;
58101;SDS011;52034;51.926;6.320;2022-10-04T04:27:12;15.20;;;10.35;;
58101;SDS011;52034;51.926;6.320;2022-10-04T04:28:39;17.83;;;10.57;;
58101;SDS011;52034;51.926;6.320;2022-10-04T04:30:00;17.20;;;10.80;;
58101;SDS011;52034;51.926;6.320;2022-10-04T04:31:24;14.88;;;10.45;;
58101;SDS011;52034;51.926;6.320;2022-10-04T04:32:47;15.90;;;10.25;;
58101;SDS011;52034;51.926;6.320;2022-10-04T04:34:19;16.88;;;10.25;;
58101;SDS011;52034;51.926;6.320;2022-10-04T04:35:48;17.25;;;10.55;;
58101;SDS011;52034;51.926;6.320;2022-10-04T04:37:12;15.40;;;10.65;;
58101;SDS011;52034;51.926;6.320;2022-10-04T04:38:31;13.23;;;9.40;;
58101;SDS011;52034;51.926;6.320;2022-10-04T04:39:50;16.65;;;10.57;;
58101;SDS011;52034;51.926;6.320;2022-10-04T04:41:12;15.57;;;9.82;;
58101;SDS011;52034;51.926;6.320;2022-10-04T04:42:32;14.95;;;10.27;;
58101;SDS011;52034;51.926;6.320;2022-10-04T04:43:52;18.58;;;10.23;;
58101;SDS011;52034;51.926;6.320;2022-10-04T04:45:19;14.02;;;10.38;;
58101;SDS011;52034;51.926;6.320;2022-10-04T04:46:40;16.63;;;10.15;;
58101;SDS011;52034;51.926;6.320;2022-10-04T04:48:01;19.13;;;10.85;;
58101;SDS011;52034;51.926;6.320;2022-10-04T04:49:22;15.00;;;10.32;;
58101;SDS011;52034;51.926;6.320;2022-10-04T04:50:41;16.55;;;9.90;;
58101;SDS011;52034;51.926;6.320;2022-10-04T04:52:06;18.75;;;10.00;;
58101;SDS011;52034;51.926;6.320;2022-10-04T04:53:34;15.60;;;9.90;;
58101;SDS011;52034;51.926;6.320;2022-10-04T04:54:53;19.40;;;9.32;;
58101;SDS011;52034;51.926;6.320;2022-10-04T04:56:15;14.32;;;9.25;;
58101;SDS011;52034;51.926;6.320;2022-10-04T04:57:37;15.13;;;9.82;;
58101;SDS011;52034;51.926;6.320;2022-10-04T04:58:57;13.15;;;8.90;;
58101;SDS011;52034;51.926;6.320;2022-10-04T05:00:20;15.75;;;9.82;;
58101;SDS011;52034;51.926;6.320;2022-10-04T05:01:45;14.82;;;9.93;;
58101;SDS011;52034;51.926;6.320;2022-10-04T05:03:05;13.98;;;9.50;;
58101;SDS011;52034;51.926;6.320;2022-10-04T05:04:28;14.00;;;9.63;;
58101;SDS011;52034;51.926;6.320;2022-10-04T05:05:49;15.65;;;9.50;;
58101;SDS011;52034;51.926;6.320;2022-10-04T05:07:15;12.98;;;9.52;;
58101;SDS011;52034;51.926;6.320;2022-10-04T05:08:34;12.57;;;8.93;;
58101;SDS011;52034;51.926;6.320;2022-10-04T05:09:54;15.05;;;8.90;;
58101;SDS011;52034;51.926;6.320;2022-10-04T05:11:14;9.75;;;8.77;;
58101;SDS011;52034;51.926;6.320;2022-10-04T05:12:37;13.35;;;8.60;;
58101;SDS011;52034;51.926;6.320;2022-10-04T05:14:06;14.32;;;9.10;;
58101;SDS011;52034;51.926;6.320;2022-10-04T05:15:30;16.30;;;9.52;;
58101;SDS011;52034;51.926;6.320;2022-10-04T05:16:52;12.32;;;9.82;;
58101;SDS011;52034;51.926;6.320;2022-10-04T05:18:32;14.70;;;9.70;;
58101;SDS011;52034;51.926;6.320;2022-10-04T05:19:51;18.98;;;9.95;;
58101;SDS011;52034;51.926;6.320;2022-10-04T05:21:17;17.73;;;9.43;;
58101;SDS011;52034;51.926;6.320;2022-10-04T05:22:42;14.27;;;9.40;;
58101;SDS011;52034;51.926;6.320;2022-10-04T05:24:07;14.00;;;9.35;;
58101;SDS011;52034;51.926;6.320;2022-10-04T05:25:30;14.30;;;8.93;;
58101;SDS011;52034;51.926;6.320;2022-10-04T05:26:51;13.77;;;9.40;;
58101;SDS011;52034;51.926;6.320;2022-10-04T05:28:12;17.80;;;9.18;;
58101;SDS011;52034;51.926;6.320;2022-10-04T05:29:37;9.48;;;8.48;;
58101;SDS011;52034;51.926;6.320;2022-10-04T05:33:07;11.48;;;8.85;;
58101;SDS011;52034;51.926;6.320;2022-10-04T05:34:37;15.02;;;8.15;;
58101;SDS011;52034;51.926;6.320;2022-10-04T05:37:39;12.90;;;8.27;;
58101;SDS011;52034;51.926;6.320;2022-10-04T05:39:28;11.18;;;8.45;;
58101;SDS011;52034;51.926;6.320;2022-10-04T05:40:54;11.85;;;8.10;;
58101;SDS011;52034;51.926;6.320;2022-10-04T05:44:15;11.60;;;8.65;;
58101;SDS011;52034;51.926;6.320;2022-10-04T05:45:37;13.02;;;8.82;;
58101;SDS011;52034;51.926;6.320;2022-10-04T05:46:56;18.20;;;9.52;;
58101;SDS011;52034;51.926;6.320;2022-10-04T05:48:17;13.27;;;8.48;;
58101;SDS011;52034;51.926;6.320;2022-10-04T05:49:39;13.20;;;8.82;;
58101;SDS011;52034;51.926;6.320;2022-10-04T05:51:01;16.08;;;8.65;;
58101;SDS011;52034;51.926;6.320;2022-10-04T05:52:40;15.60;;;9.80;;
58101;SDS011;52034;51.926;6.320;2022-10-04T05:54:00;16.75;;;8.70;;
58101;SDS011;52034;51.926;6.320;2022-10-04T05:55:27;11.93;;;8.90;;
58101;SDS011;52034;51.926;6.320;2022-10-04T06:00:33;12.63;;;9.02;;
58101;SDS011;52034;51.926;6.320;2022-10-04T06:02:17;16.33;;;9.38;;
58101;SDS011;52034;51.926;6.320;2022-10-04T06:04:00;16.13;;;8.75;;
58101;SDS011;52034;51.926;6.320;2022-10-04T06:07:11;11.73;;;8.38;;
58101;SDS011;52034;51.926;6.320;2022-10-04T06:08:38;15.43;;;8.80;;
58101;SDS011;52034;51.926;6.320;2022-10-04T06:10:16;15.10;;;8.65;;
58101;SDS011;52034;51.926;6.320;2022-10-04T06:11:59;13.95;;;8.18;;
58101;SDS011;52034;51.926;6.320;2022-10-04T06:23:42;17.42;;;9.30;;
58101;SDS011;52034;51.926;6.320;2022-10-04T06:25:08;12.45;;;7.78;;
58101;SDS011;52034;51.926;6.320;2022-10-04T06:26:36;17.10;;;8.40;;
58101;SDS011;52034;51.926;6.320;2022-10-04T06:28:03;11.70;;;8.13;;
58101;SDS011;52034;51.926;6.320;2022-10-04T06:29:38;14.05;;;8.45;;
58101;SDS011;52034;51.926;6.320;2022-10-04T06:33:07;10.02;;;8.27;;
58101;SDS011;52034;51.926;6.320;2022-10-04T06:34:56;11.48;;;8.18;;
58101;SDS011;52034;51.926;6.320;2022-10-04T06:36:38;14.30;;;7.90;;
58101;SDS011;52034;51.926;6.320;2022-10-04T06:38:10;12.18;;;7.50;;
58101;SDS011;52034;51.926;6.320;2022-10-04T06:44:49;15.43;;;8.55;;
58101;SDS011;52034;51.926;6.320;2022-10-04T06:53:25;13.93;;;8.15;;
58101;SDS011;52034;51.926;6.320;2022-10-04T06:55:02;13.40;;;7.93;;
58101;SDS011;52034;51.926;6.320;2022-10-04T06:56:32;13.20;;;7.65;;
58101;SDS011;52034;51.926;6.320;2022-10-04T06:58:03;10.32;;;7.35;;
58101;SDS011;52034;51.926;6.320;2022-10-04T07:01:37;10.75;;;7.60;;
58101;SDS011;52034;51.926;6.320;2022-10-04T07:03:26;10.05;;;8.23;;
58101;SDS011;52034;51.926;6.320;2022-10-04T07:05:21;16.67;;;7.80;;
58101;SDS011;52034;51.926;6.320;2022-10-04T07:06:51;13.10;;;7.75;;
58101;SDS011;52034;51.926;6.320;2022-10-04T07:08:44;12.43;;;7.68;;
58101;SDS011;52034;51.926;6.320;2022-10-04T07:11:58;9.93;;;8.27;;
58101;SDS011;52034;51.926;6.320;2022-10-04T07:15:15;19.42;;;8.75;;
58101;SDS011;52034;51.926;6.320;2022-10-04T07:16:47;13.50;;;8.50;;
58101;SDS011;52034;51.926;6.320;2022-10-04T07:18:11;11.15;;;7.50;;
58101;SDS011;52034;51.926;6.320;2022-10-04T07:20:58;14.65;;;8.45;;
58101;SDS011;52034;51.926;6.320;2022-10-04T07:22:24;13.05;;;8.35;;
58101;SDS011;52034;51.926;6.320;2022-10-04T07:24:03;14.13;;;8.60;;
58101;SDS011;52034;51.926;6.320;2022-10-04T07:25:33;14.45;;;7.78;;
58101;SDS011;52034;51.926;6.320;2022-10-04T07:26:54;12.05;;;7.22;;
58101;SDS011;52034;51.926;6.320;2022-10-04T07:28:14;14.05;;;7.97;;
58101;SDS011;52034;51.926;6.320;2022-10-04T07:29:57;16.60;;;8.60;;
58101;SDS011;52034;51.926;6.320;2022-10-04T07:31:21;13.38;;;7.78;;
58101;SDS011;52034;51.926;6.320;2022-10-04T07:32:45;14.02;;;8.05;;
58101;SDS011;52034;51.926;6.320;2022-10-04T07:34:24;15.00;;;7.15;;
58101;SDS011;52034;51.926;6.320;2022-10-04T07:35:46;12.48;;;7.88;;
58101;SDS011;52034;51.926;6.320;2022-10-04T07:37:08;13.80;;;7.63;;
58101;SDS011;52034;51.926;6.320;2022-10-04T07:38:30;12.93;;;7.38;;
58101;SDS011;52034;51.926;6.320;2022-10-04T07:41:20;12.38;;;7.40;;
58101;SDS011;52034;51.926;6.320;2022-10-04T07:45:45;8.95;;;7.50;;
58101;SDS011;52034;51.926;6.320;2022-10-04T07:47:22;13.57;;;8.35;;
58101;SDS011;52034;51.926;6.320;2022-10-04T07:48:44;12.80;;;7.38;;
58101;SDS011;52034;51.926;6.320;2022-10-04T07:50:19;9.40;;;7.85;;
58101;SDS011;52034;51.926;6.320;2022-10-04T07:55:22;13.30;;;8.15;;
58101;SDS011;52034;51.926;6.320;2022-10-04T07:56:46;16.23;;;7.68;;
58101;SDS011;52034;51.926;6.320;2022-10-04T08:00:03;12.45;;;7.53;;
58101;SDS011;52034;51.926;6.320;2022-10-04T08:01:37;13.02;;;7.30;;
58101;SDS011;52034;51.926;6.320;2022-10-04T08:03:35;13.82;;;7.30;;
58101;SDS011;52034;51.926;6.320;2022-10-04T08:07:01;13.10;;;7.85;;
58101;SDS011;52034;51.926;6.320;2022-10-04T08:08:26;9.88;;;7.35;;
58101;SDS011;52034;51.926;6.320;2022-10-04T08:11:40;12.25;;;6.75;;
58101;SDS011;52034;51.926;6.320;2022-10-04T08:13:27;11.63;;;7.47;;
58101;SDS011;52034;51.926;6.320;2022-10-04T08:18:24;8.80;;;6.70;;
58101;SDS011;52034;51.926;6.320;2022-10-04T08:19:51;12.48;;;7.30;;
58101;SDS011;52034;51.926;6.320;2022-10-04T08:21:45;14.45;;;7.80;;
58101;SDS011;52034;51.926;6.320;2022-10-04T08:26:39;11.80;;;7.32;;
58101;SDS011;52034;51.926;6.320;2022-10-04T08:30:04;14.95;;;7.20;;
58101;SDS011;52034;51.926;6.320;2022-10-04T08:31:35;11.77;;;6.63;;
58101;SDS011;52034;51.926;6.320;2022-10-04T08:33:11;9.07;;;6.25;;
58101;SDS011;52034;51.926;6.320;2022-10-04T08:35:00;10.90;;;6.70;;
58101;SDS011;52034;51.926;6.320;2022-10-04T08:36:58;9.32;;;6.78;;
58101;SDS011;52034;51.926;6.320;2022-10-04T08:38:27;10.52;;;7.05;;
58101;SDS011;52034;51.926;6.320;2022-10-04T08:48:02;14.40;;;6.82;;
58101;SDS011;52034;51.926;6.320;2022-10-04T08:49:36;12.98;;;7.28;;
58101;SDS011;52034;51.926;6.320;2022-10-04T08:54:54;14.63;;;6.80;;
58101;SDS011;52034;51.926;6.320;2022-10-04T08:59:48;11.93;;;7.15;;
58101;SDS011;52034;51.926;6.320;2022-10-04T09:01:44;10.98;;;7.07;;
58101;SDS011;52034;51.926;6.320;2022-10-04T09:12:06;8.75;;;6.72;;
58101;SDS011;52034;51.926;6.320;2022-10-04T09:13:54;9.38;;;7.13;;
58101;SDS011;52034;51.926;6.320;2022-10-04T09:19:07;9.55;;;7.22;;
58101;SDS011;52034;51.926;6.320;2022-10-04T09:24:27;12.10;;;7.28;;
58101;SDS011;52034;51.926;6.320;2022-10-04T09:26:01;15.07;;;7.60;;
58101;SDS011;52034;51.926;6.320;2022-10-04T09:28:29;11.38;;;7.35;;
58101;SDS011;52034;51.926;6.320;2022-10-04T09:29:41;12.18;;;6.82;;
58101;SDS011;52034;51.926;6.320;2022-10-04T09:36:22;14.07;;;7.75;;
58101;SDS011;52034;51.926;6.320;2022-10-04T09:38:20;17.27;;;8.70;;
58101;SDS011;52034;51.926;6.320;2022-10-04T09:43:19;16.70;;;8.02;;
58101;SDS011;52034;51.926;6.320;2022-10-04T09:45:05;17.67;;;7.97;;
58101;SDS011;52034;51.926;6.320;2022-10-04T09:46:48;11.20;;;6.78;;
58101;SDS011;52034;51.926;6.320;2022-10-04T09:50:08;13.35;;;7.25;;
58101;SDS011;52034;51.926;6.320;2022-10-04T09:53:39;15.73;;;8.63;;
58101;SDS011;52034;51.926;6.320;2022-10-04T10:04:41;12.93;;;7.75;;
58101;SDS011;52034;51.926;6.320;2022-10-04T10:06:23;14.88;;;7.00;;
58101;SDS011;52034;51.926;6.320;2022-10-04T10:09:42;7.90;;;6.18;;
58101;SDS011;52034;51.926;6.320;2022-10-04T10:15:11;15.02;;;7.38;;
58101;SDS011;52034;51.926;6.320;2022-10-04T10:16:42;13.50;;;7.15;;
58101;SDS011;52034;51.926;6.320;2022-10-04T10:21:37;11.05;;;7.60;;
58101;SDS011;52034;51.926;6.320;2022-10-04T10:26:44;13.27;;;8.02;;
58101;SDS011;52034;51.926;6.320;2022-10-04T10:28:11;17.00;;;8.43;;
58101;SDS011;52034;51.926;6.320;2022-10-04T10:29:52;13.45;;;8.18;;
58101;SDS011;52034;51.926;6.320;2022-10-04T10:37:57;10.60;;;6.88;;
58101;SDS011;52034;51.926;6.320;2022-10-04T10:39:32;11.98;;;8.05;;
58101;SDS011;52034;51.926;6.320;2022-10-04T10:41:11;14.15;;;9.10;;
58101;SDS011;52034;51.926;6.320;2022-10-04T10:46:24;17.17;;;8.50;;
58101;SDS011;52034;51.926;6.320;2022-10-04T10:47:59;18.25;;;9.10;;
58101;SDS011;52034;51.926;6.320;2022-10-04T10:53:18;12.93;;;7.85;;
58101;SDS011;52034;51.926;6.320;2022-10-04T11:02:54;11.93;;;7.45;;
58101;SDS011;52034;51.926;6.320;2022-10-04T11:06:14;12.55;;;6.45;;
58101;SDS011;52034;51.926;6.320;2022-10-04T11:07:52;11.20;;;6.60;;
58101;SDS011;52034;51.926;6.320;2022-10-04T11:15:39;13.13;;;7.47;;
58101;SDS011;52034;51.926;6.320;2022-10-04T11:17:12;18.20;;;8.57;;
58101;SDS011;52034;51.926;6.320;2022-10-04T11:18:48;9.45;;;5.45;;
58101;SDS011;52034;51.926;6.320;2022-10-04T11:24:11;12.82;;;6.55;;
58101;SDS011;52034;51.926;6.320;2022-10-04T11:26:00;12.65;;;7.78;;
58101;SDS011;52034;51.926;6.320;2022-10-04T11:32:29;8.38;;;5.75;;
58101;SDS011;52034;51.926;6.320;2022-10-04T11:38:04;13.50;;;6.63;;
58101;SDS011;52034;51.926;6.320;2022-10-04T11:39:34;12.07;;;6.53;;
58101;SDS011;52034;51.926;6.320;2022-10-04T11:45:19;11.57;;;6.07;;
58101;SDS011;52034;51.926;6.320;2022-10-04T11:48:53;10.40;;;6.40;;
58101;SDS011;52034;51.926;6.320;2022-10-04T11:52:15;14.60;;;7.20;;
58101;SDS011;52034;51.926;6.320;2022-10-04T11:54:10;12.90;;;7.15;;
58101;SDS011;52034;51.926;6.320;2022-10-04T12:02:07;10.52;;;5.82;;
58101;SDS011;52034;51.926;6.320;2022-10-04T12:03:45;11.70;;;5.75;;
58101;SDS011;52034;51.926;6.320;2022-10-04T12:08:28;8.70;;;5.40;;
58101;SDS011;52034;51.926;6.320;2022-10-04T12:10:14;13.88;;;6.95;;
58101;SDS011;52034;51.926;6.320;2022-10-04T12:15:32;14.82;;;7.50;;
58101;SDS011;52034;51.926;6.320;2022-10-04T12:23:42;10.68;;;6.38;;
58101;SDS011;52034;51.926;6.320;2022-10-04T12:25:24;15.20;;;6.82;;
58101;SDS011;52034;51.926;6.320;2022-10-04T12:27:24;10.55;;;5.15;;
58101;SDS011;52034;51.926;6.320;2022-10-04T12:32:25;10.85;;;6.63;;
58101;SDS011;52034;51.926;6.320;2022-10-04T12:34:03;9.32;;;5.80;;
58101;SDS011;52034;51.926;6.320;2022-10-04T12:35:40;12.45;;;7.20;;
58101;SDS011;52034;51.926;6.320;2022-10-04T12:37:15;12.02;;;6.72;;